createdAt,value
2022-08-29T00:00:44.777Z,26.97
2022-08-29T00:04:27.957Z,27.09
2022-08-29T00:08:17.609Z,27.12
2022-08-29T00:11:58.071Z,27.12
2022-08-29T00:14:59.538Z,27.30
2022-08-29T00:18:47.577Z,27.42
2022-08-29T00:22:18.683Z,27.55
2022-08-29T00:25:48.135Z,27.56
2022-08-29T00:29:15.685Z,27.24
2022-08-29T00:32:39.914Z,27.31
2022-08-29T00:36:16.678Z,27.30
2022-08-29T00:40:05.367Z,27.11
2022-08-29T00:43:49.701Z,27.39
2022-08-29T00:47:37.428Z,27.39
2022-08-29T00:51:28.150Z,27.24
2022-08-29T00:55:16.139Z,27.01
2022-08-29T00:59:02.447Z,26.93
2022-08-29T01:02:30.359Z,26.87
2022-08-29T01:05:59.167Z,26.84
2022-08-29T01:09:47.207Z,26.90
2022-08-29T01:13:34.777Z,26.79
2022-08-29T01:17:22.615Z,26.62
2022-08-29T01:21:05.039Z,26.41
2022-08-29T01:24:47.770Z,26.39
2022-08-29T01:28:35.392Z,25.86
2022-08-29T01:32:15.248Z,26.04
2022-08-29T01:36:03.033Z,26.00
2022-08-29T01:39:49.882Z,25.88
2022-08-29T01:43:30.720Z,26.12
2022-08-29T01:47:18.334Z,26.26
2022-08-29T01:50:34.368Z,26.00
2022-08-29T01:54:22.187Z,26.05
2022-08-29T01:58:03.798Z,25.72
2022-08-29T02:01:50.503Z,25.66
2022-08-29T02:05:37.136Z,25.73
2022-08-29T02:09:14.788Z,25.79
2022-08-29T02:13:00.869Z,25.78
2022-08-29T02:16:49.105Z,25.89
2022-08-29T02:20:36.122Z,25.86
2022-08-29T02:24:21.268Z,25.71
2022-08-29T02:27:36.881Z,25.41
2022-08-29T02:31:15.889Z,25.17
2022-08-29T02:34:47.772Z,25.17
2022-08-29T02:38:16.351Z,25.21
2022-08-29T02:42:04.288Z,25.31
2022-08-29T02:45:14.928Z,25.22
2022-08-29T02:49:02.523Z,25.10
2022-08-29T02:52:49.159Z,25.07
2022-08-29T02:56:30.050Z,25.10
2022-08-29T02:59:43.171Z,24.93
2022-08-29T03:03:12.125Z,24.78
2022-08-29T03:06:31.384Z,24.77
2022-08-29T03:09:49.202Z,24.97
2022-08-29T03:13:36.702Z,24.86
2022-08-29T03:17:24.403Z,24.55
2022-08-29T03:21:12.591Z,24.37
2022-08-29T03:25:00.524Z,24.14
2022-08-29T03:28:48.312Z,24.16
2022-08-29T03:32:36.522Z,24.21
2022-08-29T03:36:03.753Z,24.06
2022-08-29T03:39:56.022Z,23.95
2022-08-29T03:43:15.523Z,24.02
2022-08-29T03:47:03.341Z,24.13
2022-08-29T03:50:55.800Z,24.18
2022-08-29T03:54:44.414Z,24.15
2022-08-29T03:58:31.590Z,23.85
2022-08-29T04:01:59.311Z,23.48
2022-08-29T04:05:27.835Z,23.27
2022-08-29T04:08:45.679Z,23.36
2022-08-29T04:12:34.524Z,23.57
2022-08-29T04:16:23.451Z,23.74
2022-08-29T04:20:11.450Z,23.84
2022-08-29T04:23:39.513Z,23.73
2022-08-29T04:27:15.801Z,23.78
2022-08-29T04:31:06.001Z,23.83
2022-08-29T04:34:33.483Z,24.00
2022-08-29T04:38:21.794Z,23.35
2022-08-29T04:42:09.552Z,23.23
2022-08-29T04:45:57.423Z,23.51
2022-08-29T04:49:45.905Z,23.79
2022-08-29T04:53:04.711Z,23.69
2022-08-29T04:56:31.823Z,23.77
2022-08-29T05:00:00.034Z,23.44
2022-08-29T05:03:48.655Z,23.12
2022-08-29T05:07:16.210Z,23.33
2022-08-29T05:10:44.861Z,23.56
2022-08-29T05:14:35.225Z,23.56
2022-08-29T05:18:02.759Z,23.81
2022-08-29T05:21:50.345Z,23.79
2022-08-29T05:25:18.062Z,24.17
2022-08-29T05:28:57.532Z,24.08
2022-08-29T05:32:45.223Z,24.19
2022-08-29T05:36:25.438Z,23.80
2022-08-29T05:39:42.857Z,24.01
2022-08-29T05:42:53.597Z,24.17
2022-08-29T05:46:33.797Z,24.20
2022-08-29T05:50:21.592Z,24.38
2022-08-29T05:53:59.827Z,24.37
2022-08-29T05:57:47.394Z,24.24
2022-08-29T06:01:28.647Z,24.30
2022-08-29T06:04:42.971Z,24.52
2022-08-29T06:08:11.919Z,24.81
2022-08-29T06:11:32.775Z,25.13
2022-08-29T06:15:13.149Z,24.83
2022-08-29T06:18:31.562Z,24.94
2022-08-29T06:21:46.034Z,24.91
2022-08-29T06:25:39.666Z,24.93
2022-08-29T06:29:27.849Z,25.26
2022-08-29T06:32:58.471Z,25.94
2022-08-29T06:36:46.339Z,25.89
2022-08-29T06:40:33.069Z,25.41
2022-08-29T06:44:20.693Z,25.56
2022-08-29T06:47:55.968Z,25.89
2022-08-29T06:51:44.241Z,25.93
2022-08-29T06:55:24.443Z,26.07
2022-08-29T06:59:12.270Z,25.97
2022-08-29T07:02:40.020Z,26.05
2022-08-29T07:06:22.466Z,26.00
2022-08-29T07:09:48.096Z,26.56
2022-08-29T07:13:14.348Z,27.29
2022-08-29T07:17:02.288Z,28.53
2022-08-29T07:20:50.169Z,29.07
2022-08-29T07:24:18.657Z,29.59
2022-08-29T07:27:58.020Z,30.46
2022-08-29T07:31:45.943Z,30.92
2022-08-29T07:35:33.880Z,30.44
2022-08-29T07:39:21.418Z,29.50
2022-08-29T07:43:01.602Z,30.06
2022-08-29T07:46:49.254Z,31.01
2022-08-29T07:50:37.333Z,31.15
2022-08-29T07:54:25.135Z,31.80
2022-08-29T07:58:02.847Z,31.99
2022-08-29T08:01:51.705Z,32.01
2022-08-29T08:06:03.914Z,32.72
2022-08-29T08:09:49.776Z,33.20
2022-08-29T08:13:38.017Z,32.72
2022-08-29T08:17:26.212Z,33.47
2022-08-29T08:20:58.068Z,33.16
2022-08-29T08:24:51.740Z,33.01
2022-08-29T08:28:22.923Z,32.96
2022-08-29T08:32:05.249Z,33.78
2022-08-29T08:35:53.586Z,33.64
2022-08-29T08:39:41.962Z,33.36
2022-08-29T08:43:38.493Z,32.76
2022-08-29T08:47:29.330Z,33.50
2022-08-29T08:51:19.677Z,33.88
2022-08-29T08:55:07.507Z,33.24
2022-08-29T08:58:53.638Z,32.89
2022-08-29T09:02:47.113Z,33.04
2022-08-29T09:06:49.480Z,33.21
2022-08-29T09:10:42.985Z,33.58
2022-08-29T09:14:42.798Z,32.30
2022-08-29T09:18:38.190Z,32.93
2022-08-29T09:22:26.206Z,32.27
2022-08-29T09:26:15.048Z,33.05
2022-08-29T09:30:05.629Z,33.08
2022-08-29T09:33:53.453Z,32.83
2022-08-29T09:37:59.544Z,32.01
2022-08-29T09:41:47.641Z,31.63
2022-08-29T09:45:35.259Z,31.97
2022-08-29T09:49:23.167Z,31.52
2022-08-29T09:53:24.372Z,31.92
2022-08-29T09:57:16.114Z,32.79
2022-08-29T10:01:15.711Z,32.88
2022-08-29T10:05:15.841Z,31.56
2022-08-29T10:08:59.932Z,32.65
2022-08-29T10:12:50.658Z,33.57
2022-08-29T10:16:53.336Z,33.19
2022-08-29T10:20:41.102Z,33.95
2022-08-29T10:29:05.705Z,33.18
2022-08-29T10:32:55.178Z,33.58
2022-08-29T10:36:57.957Z,33.74
2022-08-29T10:41:03.464Z,33.66
2022-08-29T10:44:47.830Z,33.90
2022-08-29T10:48:44.264Z,35.22
2022-08-29T10:52:37.715Z,34.61
2022-08-29T10:56:29.582Z,34.59
2022-08-29T11:00:19.784Z,34.67
2022-08-29T11:04:05.798Z,34.30
2022-08-29T11:07:56.575Z,33.70
2022-08-29T11:11:44.208Z,33.76
2022-08-29T11:15:42.475Z,35.10
2022-08-29T11:19:34.726Z,34.38
2022-08-29T11:23:07.268Z,33.00
2022-08-29T11:26:35.637Z,33.30
2022-08-29T11:30:39.322Z,33.18
2022-08-29T11:34:38.638Z,33.00
2022-08-29T11:38:28.985Z,34.54
2022-08-29T11:46:16.826Z,35.80
2022-08-29T11:50:19.655Z,33.94
2022-08-29T11:54:10.648Z,34.65
2022-08-29T11:58:11.851Z,35.42
2022-08-29T12:02:05.845Z,34.16
2022-08-29T12:05:56.431Z,34.17
2022-08-29T12:09:58.965Z,34.38
2022-08-29T12:13:46.629Z,34.52
2022-08-29T12:18:00.494Z,34.91
2022-08-29T12:21:45.622Z,35.14
2022-08-29T12:25:37.281Z,35.87
2022-08-29T12:29:41.250Z,35.37
2022-08-29T12:33:47.922Z,34.33
2022-08-29T12:37:40.773Z,34.20
2022-08-29T12:41:46.320Z,34.72
2022-08-29T12:45:18.780Z,34.08
2022-08-29T12:48:57.636Z,33.70
2022-08-29T12:52:39.125Z,32.58
2022-08-29T12:56:05.967Z,32.52
2022-08-29T12:59:56.716Z,32.75
2022-08-29T13:03:27.912Z,32.16
2022-08-29T13:06:40.345Z,32.58
2022-08-29T13:10:32.071Z,32.45
2022-08-29T13:14:19.951Z,32.23
2022-08-29T13:18:06.957Z,32.74
2022-08-29T13:22:12.984Z,32.48
2022-08-29T13:26:10.225Z,32.56
2022-08-29T13:30:03.698Z,32.11
2022-08-29T13:33:50.223Z,31.71
2022-08-29T13:37:37.857Z,31.98
2022-08-29T13:41:32.204Z,31.57
2022-08-29T13:45:28.765Z,31.95
2022-08-29T13:49:16.099Z,31.47
2022-08-29T13:52:59.903Z,31.71
2022-08-29T13:56:47.795Z,31.82
2022-08-29T14:00:32.458Z,32.04
2022-08-29T14:04:36.927Z,32.45
2022-08-29T14:08:22.758Z,31.99
2022-08-29T14:11:54.159Z,31.10
2022-08-29T14:15:26.577Z,31.59
2022-08-29T14:19:15.243Z,31.57
2022-08-29T14:23:06.982Z,31.86
2022-08-29T14:27:01.461Z,32.28
2022-08-29T14:30:52.290Z,31.75
2022-08-29T14:34:41.122Z,31.39
2022-08-29T14:38:39.128Z,31.71
2022-08-29T14:42:27.017Z,32.04
2022-08-29T14:46:15.128Z,31.77
2022-08-29T14:49:33.892Z,31.81
2022-08-29T14:53:21.497Z,32.05
2022-08-29T14:57:09.044Z,31.40
2022-08-29T15:00:56.902Z,31.44
2022-08-29T15:04:44.626Z,31.30
2022-08-29T15:08:25.061Z,31.23
2022-08-29T15:12:13.698Z,31.51
2022-08-29T15:16:01.918Z,31.31
2022-08-29T15:23:58.173Z,31.80
2022-08-29T15:27:15.935Z,31.44
2022-08-29T15:31:01.507Z,31.35
2022-08-29T15:34:30.410Z,32.07
2022-08-29T15:37:59.729Z,32.65
2022-08-29T15:41:47.223Z,31.89
2022-08-29T15:45:25.180Z,32.92
2022-08-29T15:49:12.930Z,33.21
2022-08-29T15:52:55.855Z,32.63
2022-08-29T15:56:35.806Z,32.47
2022-08-29T16:00:05.925Z,32.35
2022-08-29T16:03:26.642Z,32.07
2022-08-29T16:07:14.573Z,32.03
2022-08-29T16:11:02.309Z,32.05
2022-08-29T16:15:09.440Z,32.15
2022-08-29T16:18:57.892Z,31.94
2022-08-29T16:22:45.919Z,32.23
2022-08-29T16:26:21.493Z,31.95
2022-08-29T16:29:49.955Z,31.84
2022-08-29T16:33:29.288Z,31.49
2022-08-29T16:36:59.216Z,31.23
2022-08-29T16:40:26.923Z,31.30
2022-08-29T16:44:04.955Z,30.96
2022-08-29T16:47:52.146Z,30.99
2022-08-29T16:51:28.943Z,31.09
2022-08-29T16:54:56.388Z,31.51
2022-08-29T16:59:19.445Z,30.62
2022-08-29T17:03:07.377Z,30.38
2022-08-29T17:06:57.381Z,30.82
2022-08-29T17:10:25.276Z,30.77
2022-08-29T17:13:52.807Z,30.72
2022-08-29T17:17:42.186Z,30.81
2022-08-29T17:21:30.398Z,30.71
2022-08-29T17:25:18.210Z,30.46
2022-08-29T17:29:06.038Z,30.28
2022-08-29T17:32:48.638Z,30.23
2022-08-29T17:36:36.628Z,30.49
2022-08-29T17:40:24.695Z,30.52
2022-08-29T17:44:13.741Z,30.00
2022-08-29T17:48:02.096Z,29.89
2022-08-29T17:51:53.721Z,30.12
2022-08-29T17:55:45.271Z,30.25
2022-08-29T17:59:33.768Z,30.05
2022-08-29T18:03:21.314Z,30.25
2022-08-29T18:07:09.306Z,30.17
2022-08-29T18:10:57.730Z,30.14
2022-08-29T18:14:47.935Z,30.18
2022-08-29T18:18:36.274Z,30.21
2022-08-29T18:22:24.379Z,29.97
2022-08-29T18:26:12.477Z,30.14
2022-08-29T18:30:00.176Z,29.87
2022-08-29T18:34:04.149Z,29.22
2022-08-29T18:37:55.295Z,28.78
2022-08-29T18:41:43.346Z,28.46
2022-08-29T18:45:31.213Z,28.46
2022-08-29T18:49:19.523Z,28.59
2022-08-29T18:53:07.876Z,28.81
2022-08-29T18:56:56.406Z,28.52
2022-08-29T19:00:44.979Z,28.51
2022-08-29T19:04:33.134Z,28.67
2022-08-29T19:08:21.980Z,28.72
2022-08-29T19:12:10.461Z,28.48
2022-08-29T19:16:00.557Z,28.89
2022-08-29T19:19:48.862Z,28.84
2022-08-29T19:23:44.097Z,28.87
2022-08-29T19:27:43.137Z,29.42
2022-08-29T19:31:32.666Z,29.48
2022-08-29T19:35:21.428Z,29.59
2022-08-29T19:39:09.996Z,29.46
2022-08-29T19:42:59.005Z,29.47
2022-08-29T19:46:51.095Z,29.31
2022-08-29T19:50:41.773Z,29.16
2022-08-29T19:54:29.791Z,29.27
2022-08-29T19:58:17.618Z,29.35
2022-08-29T20:02:06.185Z,29.23
2022-08-29T20:05:54.782Z,29.22
2022-08-29T20:09:43.405Z,29.19
2022-08-29T20:13:34.811Z,29.13
2022-08-29T20:17:24.284Z,28.81
2022-08-29T20:21:19.296Z,28.72
2022-08-29T20:25:07.948Z,28.70
2022-08-29T20:28:56.846Z,28.41
2022-08-29T20:32:47.773Z,28.32
2022-08-29T20:36:38.570Z,28.11
2022-08-29T20:40:29.370Z,28.32
2022-08-29T20:44:18.516Z,28.39
2022-08-29T20:48:06.398Z,28.21
2022-08-29T20:51:57.160Z,27.96
2022-08-29T20:55:44.977Z,27.81
2022-08-29T20:59:34.483Z,27.88
2022-08-29T21:03:20.915Z,27.72
2022-08-29T21:07:09.004Z,27.82
2022-08-29T21:10:57.081Z,27.87
2022-08-29T21:14:45.515Z,28.13
2022-08-29T21:18:33.544Z,28.14
2022-08-29T21:22:24.799Z,28.04
2022-08-29T21:26:15.615Z,28.17
2022-08-29T21:30:03.394Z,28.09
2022-08-29T21:33:54.660Z,28.19
2022-08-29T21:37:42.475Z,28.39
2022-08-29T21:41:30.478Z,28.35
2022-08-29T21:45:18.805Z,28.42
2022-08-29T21:49:06.728Z,28.06
2022-08-29T21:52:54.834Z,27.79
2022-08-29T21:56:42.559Z,27.82
2022-08-29T22:00:30.055Z,27.74
2022-08-29T22:04:19.209Z,27.73
2022-08-29T22:08:17.366Z,27.90
2022-08-29T22:12:13.934Z,27.62
2022-08-29T22:16:00.155Z,27.53
2022-08-29T22:19:48.029Z,27.60
2022-08-29T22:23:35.654Z,27.93
2022-08-29T22:27:23.341Z,27.90
2022-08-29T22:31:11.769Z,28.14
2022-08-29T22:34:59.338Z,28.48
2022-08-29T22:38:47.239Z,28.32
2022-08-29T22:42:37.353Z,28.47
2022-08-29T22:46:25.515Z,28.58
2022-08-29T22:50:13.495Z,28.38
2022-08-29T22:54:01.333Z,28.37
2022-08-29T22:57:48.981Z,28.28
2022-08-29T23:01:36.993Z,28.51
2022-08-29T23:05:24.738Z,28.30
2022-08-29T23:09:12.815Z,28.17
2022-08-29T23:13:00.758Z,27.92
2022-08-29T23:16:48.468Z,27.82
2022-08-29T23:20:36.672Z,27.93
2022-08-29T23:24:24.790Z,27.85
2022-08-29T23:28:12.605Z,27.68
2022-08-29T23:32:01.235Z,27.49
2022-08-29T23:35:49.429Z,27.71
2022-08-29T23:39:37.051Z,27.55
2022-08-29T23:43:24.959Z,27.93
2022-08-29T23:47:13.087Z,27.98
2022-08-29T23:51:00.708Z,28.26
2022-08-29T23:54:48.469Z,28.16
2022-08-29T23:58:36.138Z,27.94
